createdAt,value
2019-03-30T00:00:02.582Z,7.87
2019-03-30T00:02:31.547Z,7.93
2019-03-30T00:05:00.579Z,7.50
2019-03-30T00:07:29.359Z,6.90
2019-03-30T00:09:58.318Z,7.20
2019-03-30T00:12:27.099Z,7.17
2019-03-30T00:14:55.925Z,7.77
2019-03-30T00:17:24.731Z,7.47
2019-03-30T00:19:54.305Z,8.17
2019-03-30T00:22:23.384Z,7.90
2019-03-30T00:24:52.418Z,7.57
2019-03-30T00:27:21.297Z,7.97
2019-03-30T00:29:50.162Z,8.10
2019-03-30T00:32:19.064Z,7.97
2019-03-30T00:34:47.887Z,8.33
2019-03-30T00:37:16.968Z,8.53
2019-03-30T00:39:45.796Z,8.80
2019-03-30T00:42:14.612Z,8.90
2019-03-30T00:44:43.483Z,8.03
2019-03-30T00:47:13.455Z,8.93
2019-03-30T00:49:48.989Z,9.40
2019-03-30T00:52:13.293Z,8.60
2019-03-30T00:54:42.111Z,8.30
2019-03-30T00:57:10.958Z,8.10
2019-03-30T00:59:39.819Z,7.20
2019-03-30T01:02:08.813Z,7.20
2019-03-30T01:04:37.942Z,7.00
2019-03-30T01:07:06.887Z,6.90
2019-03-30T01:09:35.898Z,7.07
2019-03-30T01:12:04.974Z,6.90
2019-03-30T01:14:33.895Z,7.53
2019-03-30T01:17:02.823Z,7.07
2019-03-30T01:19:31.705Z,6.90
2019-03-30T01:22:00.642Z,7.63
2019-03-30T01:24:29.564Z,7.47
2019-03-30T01:26:58.394Z,8.53
2019-03-30T01:29:27.312Z,7.20
2019-03-30T01:31:56.454Z,7.43
2019-03-30T01:34:25.253Z,7.17
2019-03-30T01:36:54.383Z,7.77
2019-03-30T01:39:23.239Z,8.10
2019-03-30T01:41:52.338Z,6.90
2019-03-30T01:44:21.153Z,7.80
2019-03-30T01:46:50.260Z,7.33
2019-03-30T01:49:19.215Z,7.17
2019-03-30T01:51:48.231Z,7.77
2019-03-30T01:54:17.117Z,7.70
2019-03-30T01:56:45.934Z,7.30
2019-03-30T01:59:14.786Z,7.77
2019-03-30T02:01:43.662Z,7.93
2019-03-30T02:04:12.464Z,7.70
2019-03-30T02:06:41.360Z,7.67
2019-03-30T02:09:10.280Z,8.13
2019-03-30T02:11:39.097Z,7.87
2019-03-30T02:14:08.017Z,7.77
2019-03-30T02:16:36.923Z,8.33
2019-03-30T02:19:05.986Z,8.43
2019-03-30T02:21:34.799Z,8.20
2019-03-30T02:24:03.652Z,7.90
2019-03-30T02:26:32.463Z,8.20
2019-03-30T02:29:01.293Z,7.93
2019-03-30T02:31:30.292Z,7.43
2019-03-30T02:33:59.101Z,8.10
2019-03-30T02:36:27.998Z,8.27
2019-03-30T02:38:58.631Z,7.97
2019-03-30T02:41:28.034Z,8.57
2019-03-30T02:43:56.901Z,7.33
2019-03-30T02:46:25.721Z,8.00
2019-03-30T02:48:54.589Z,8.77
2019-03-30T02:51:23.629Z,8.13
2019-03-30T02:53:52.693Z,8.20
2019-03-30T02:56:21.703Z,7.50
2019-03-30T02:58:50.743Z,8.30
2019-03-30T03:01:19.661Z,7.93
2019-03-30T03:03:48.647Z,8.50
2019-03-30T03:06:17.490Z,8.67
2019-03-30T03:08:46.351Z,8.27
2019-03-30T03:11:15.411Z,8.07
2019-03-30T03:13:44.269Z,8.80
2019-03-30T03:16:13.289Z,8.60
2019-03-30T03:18:42.242Z,7.47
2019-03-30T03:21:11.227Z,7.67
2019-03-30T03:23:40.101Z,7.40
2019-03-30T03:26:09.108Z,7.87
2019-03-30T03:28:38.144Z,8.83
2019-03-30T03:31:09.778Z,9.00
2019-03-30T03:33:38.745Z,8.77
2019-03-30T03:36:07.682Z,9.07
2019-03-30T03:38:36.486Z,8.60
2019-03-30T03:41:05.518Z,8.33
2019-03-30T03:43:34.452Z,8.77
2019-03-30T03:46:03.301Z,8.83
2019-03-30T03:48:32.106Z,9.83
2019-03-30T03:51:02.770Z,8.60
2019-03-30T03:53:31.796Z,9.60
2019-03-30T03:56:01.133Z,9.43
2019-03-30T03:58:33.038Z,9.20
2019-03-30T04:01:02.289Z,8.80
2019-03-30T04:03:32.493Z,9.10
2019-03-30T04:06:04.722Z,8.43
2019-03-30T04:08:33.594Z,8.47
2019-03-30T04:11:02.692Z,8.73
2019-03-30T04:13:31.507Z,9.53
2019-03-30T04:16:00.382Z,8.50
2019-03-30T04:18:29.359Z,9.27
2019-03-30T04:20:58.635Z,9.17
2019-03-30T04:23:27.783Z,9.50
2019-03-30T04:25:56.638Z,9.57
2019-03-30T04:28:25.628Z,9.40
2019-03-30T04:30:54.640Z,9.20
2019-03-30T04:33:23.539Z,9.17
2019-03-30T04:35:52.465Z,10.00
2019-03-30T04:38:21.454Z,9.57
2019-03-30T04:40:50.696Z,8.70
2019-03-30T04:43:19.695Z,9.17
2019-03-30T04:45:50.188Z,8.77
2019-03-30T04:48:19.052Z,8.60
2019-03-30T04:50:47.903Z,8.87
2019-03-30T04:53:16.875Z,8.90
2019-03-30T04:55:47.386Z,8.60
2019-03-30T04:58:16.461Z,9.07
2019-03-30T05:00:45.281Z,9.20
2019-03-30T05:03:14.427Z,9.10
2019-03-30T05:05:43.525Z,9.27
2019-03-30T05:08:12.465Z,9.90
2019-03-30T05:10:41.429Z,9.43
2019-03-30T05:13:10.379Z,10.10
2019-03-30T05:15:39.291Z,10.10
2019-03-30T05:18:08.117Z,9.67
2019-03-30T05:20:37.254Z,10.00
2019-03-30T05:23:06.226Z,9.57
2019-03-30T05:25:35.039Z,10.00
2019-03-30T05:28:03.889Z,9.50
2019-03-30T05:30:32.904Z,10.53
2019-03-30T05:33:06.184Z,9.83
2019-03-30T05:35:32.824Z,10.37
2019-03-30T05:38:01.824Z,10.40
2019-03-30T05:40:30.733Z,10.20
2019-03-30T05:42:59.573Z,9.93
2019-03-30T05:45:28.639Z,9.87
2019-03-30T05:47:57.560Z,10.20
2019-03-30T05:50:26.469Z,9.77
2019-03-30T05:52:55.331Z,10.57
2019-03-30T05:55:24.523Z,9.80
2019-03-30T05:57:53.465Z,9.00
2019-03-30T06:00:24.115Z,9.93
2019-03-30T06:02:53.105Z,9.70
2019-03-30T06:05:22.031Z,9.63
2019-03-30T06:07:50.933Z,9.40
2019-03-30T06:10:19.817Z,10.23
2019-03-30T06:12:48.979Z,9.23
2019-03-30T06:15:17.950Z,10.37
2019-03-30T06:17:46.806Z,9.47
2019-03-30T06:20:15.794Z,10.30
2019-03-30T06:22:44.635Z,10.30
2019-03-30T06:25:13.870Z,9.77
2019-03-30T06:27:42.999Z,9.87
2019-03-30T06:30:22.962Z,10.43
2019-03-30T06:32:51.790Z,10.23
2019-03-30T06:35:20.810Z,10.47
2019-03-30T06:37:49.736Z,13.40
2019-03-30T06:40:18.773Z,10.93
2019-03-30T06:42:48.203Z,11.00
2019-03-30T06:45:17.124Z,10.80
2019-03-30T06:47:46.121Z,10.23
2019-03-30T06:50:15.027Z,10.03
2019-03-30T06:52:56.812Z,10.67
2019-03-30T06:55:14.761Z,10.67
2019-03-30T06:57:43.730Z,10.57
2019-03-30T07:00:14.311Z,11.93
2019-03-30T07:02:43.255Z,10.70
2019-03-30T07:05:12.221Z,10.47
2019-03-30T07:07:41.504Z,10.80
2019-03-30T07:10:10.575Z,11.20
2019-03-30T07:12:40.561Z,10.80
2019-03-30T07:15:10.069Z,10.73
2019-03-30T07:17:42.052Z,11.30
2019-03-30T07:20:27.827Z,10.97
2019-03-30T07:23:10.760Z,11.37
2019-03-30T07:25:27.609Z,12.30
2019-03-30T07:27:56.587Z,12.33
2019-03-30T07:30:25.835Z,12.53
2019-03-30T07:32:54.953Z,13.57
2019-03-30T07:35:23.782Z,13.57
2019-03-30T07:37:52.920Z,13.00
2019-03-30T07:40:21.766Z,12.50
2019-03-30T07:42:50.803Z,10.80
2019-03-30T07:45:19.780Z,12.33
2019-03-30T07:47:48.981Z,10.63
2019-03-30T07:50:17.930Z,12.17
2019-03-30T07:52:46.823Z,10.93
2019-03-30T07:55:15.666Z,13.37
2019-03-30T07:57:44.708Z,12.90
2019-03-30T08:00:13.859Z,14.47
2019-03-30T08:02:43.073Z,13.57
2019-03-30T08:05:12.016Z,13.47
2019-03-30T08:07:40.866Z,13.17
2019-03-30T08:10:09.885Z,12.93
2019-03-30T08:12:38.762Z,12.60
2019-03-30T08:15:08.214Z,11.80
2019-03-30T08:17:37.022Z,12.27
2019-03-30T08:20:07.011Z,11.53
2019-03-30T08:22:36.515Z,12.17
2019-03-30T08:25:08.653Z,10.93
2019-03-30T08:27:37.881Z,11.23
2019-03-30T08:30:06.783Z,10.97
2019-03-30T08:32:35.566Z,10.47
2019-03-30T08:35:05.753Z,11.10
2019-03-30T08:37:34.602Z,11.03
2019-03-30T08:40:04.070Z,9.80
2019-03-30T08:42:32.952Z,11.40
2019-03-30T08:45:01.920Z,12.03
2019-03-30T08:47:30.826Z,9.50
2019-03-30T08:49:59.923Z,11.13
2019-03-30T08:52:28.908Z,9.80
2019-03-30T08:54:58.061Z,10.13
2019-03-30T08:57:27.054Z,9.40
2019-03-30T08:59:55.940Z,8.83
2019-03-30T09:02:24.843Z,8.87
2019-03-30T09:04:53.676Z,9.93
2019-03-30T09:07:22.602Z,8.93
2019-03-30T09:09:51.452Z,9.33
2019-03-30T09:12:20.443Z,9.53
2019-03-30T09:14:49.577Z,10.17
2019-03-30T09:17:18.683Z,9.40
2019-03-30T09:19:47.561Z,10.40
2019-03-30T09:22:16.411Z,10.07
2019-03-30T09:24:45.257Z,10.90
2019-03-30T09:27:14.372Z,9.60
2019-03-30T09:29:43.363Z,10.27
2019-03-30T09:32:14.646Z,10.40
2019-03-30T09:34:42.772Z,9.83
2019-03-30T09:37:11.631Z,9.57
2019-03-30T09:39:40.481Z,11.50
2019-03-30T09:42:09.377Z,11.67
2019-03-30T09:44:38.268Z,11.17
2019-03-30T09:47:07.108Z,10.67
2019-03-30T09:49:36.406Z,11.60
2019-03-30T09:52:05.296Z,11.10
2019-03-30T09:54:34.112Z,10.97
2019-03-30T09:57:02.949Z,10.90
2019-03-30T09:59:31.833Z,11.13
2019-03-30T10:02:00.805Z,10.87
2019-03-30T10:04:30.019Z,11.03
2019-03-30T10:06:58.924Z,10.93
2019-03-30T10:09:28.140Z,10.77
2019-03-30T10:11:57.146Z,11.10
2019-03-30T10:14:26.084Z,10.63
2019-03-30T10:16:55.170Z,12.17
2019-03-30T10:19:27.765Z,11.47
2019-03-30T10:21:56.194Z,11.73
2019-03-30T10:24:37.458Z,10.03
2019-03-30T10:26:56.700Z,12.50
2019-03-30T10:29:27.472Z,11.70
2019-03-30T10:31:59.742Z,12.37
2019-03-30T10:34:27.055Z,12.37
2019-03-30T10:36:55.947Z,12.73
2019-03-30T10:39:24.782Z,13.00
2019-03-30T10:41:53.991Z,11.27
2019-03-30T10:44:22.850Z,11.27
2019-03-30T10:46:51.657Z,12.50
2019-03-30T10:49:20.776Z,12.73
2019-03-30T10:51:49.799Z,12.20
2019-03-30T10:54:18.820Z,12.43
2019-03-30T10:56:47.629Z,12.93
2019-03-30T10:59:16.587Z,11.17
2019-03-30T11:01:45.543Z,12.87
2019-03-30T11:04:14.453Z,12.40
2019-03-30T11:06:43.516Z,13.00
2019-03-30T11:09:12.461Z,12.80
2019-03-30T11:11:41.356Z,12.77
2019-03-30T11:14:10.336Z,12.70
2019-03-30T11:16:39.338Z,10.67
2019-03-30T11:19:08.351Z,12.70
2019-03-30T11:21:37.462Z,11.83
2019-03-30T11:24:06.960Z,12.90
2019-03-30T11:26:36.110Z,12.93
2019-03-30T11:29:05.058Z,12.47
2019-03-30T11:31:33.904Z,13.00
2019-03-30T11:34:02.993Z,13.90
2019-03-30T11:36:31.994Z,12.93
2019-03-30T11:39:04.886Z,12.07
2019-03-30T11:41:33.800Z,11.57
2019-03-30T11:44:02.768Z,12.77
2019-03-30T11:46:31.678Z,13.63
2019-03-30T11:49:04.889Z,13.73
2019-03-30T11:51:34.114Z,12.70
2019-03-30T11:54:05.280Z,13.27
2019-03-30T11:56:33.647Z,12.97
2019-03-30T11:59:02.688Z,12.93
2019-03-30T12:01:31.946Z,13.13
2019-03-30T12:04:00.827Z,13.53
2019-03-30T12:06:29.754Z,12.83
2019-03-30T12:08:58.642Z,14.37
2019-03-30T12:11:27.838Z,14.43
2019-03-30T12:13:56.744Z,14.47
2019-03-30T12:16:25.934Z,15.03
2019-03-30T12:18:54.898Z,13.80
2019-03-30T12:21:24.004Z,14.70
2019-03-30T12:23:52.874Z,14.80
2019-03-30T12:26:21.726Z,14.30
2019-03-30T12:28:50.786Z,13.67
2019-03-30T12:31:19.846Z,14.73
2019-03-30T12:33:48.760Z,14.10
2019-03-30T12:36:17.549Z,13.87
2019-03-30T12:38:46.513Z,14.13
2019-03-30T12:41:15.407Z,14.33
2019-03-30T12:43:44.256Z,14.43
2019-03-30T12:46:13.368Z,14.77
2019-03-30T12:48:42.429Z,14.23
2019-03-30T12:51:11.417Z,13.93
2019-03-30T12:53:50.050Z,13.53
2019-03-30T12:56:10.885Z,14.13
2019-03-30T12:58:39.709Z,15.13
2019-03-30T13:01:08.607Z,16.10
2019-03-30T13:03:37.468Z,17.00
2019-03-30T13:06:06.343Z,15.80
2019-03-30T13:08:35.415Z,15.83
2019-03-30T13:11:04.267Z,14.87
2019-03-30T13:13:33.378Z,14.43
2019-03-30T13:16:02.266Z,15.70
2019-03-30T13:18:31.164Z,14.77
2019-03-30T13:21:00.300Z,13.97
2019-03-30T13:23:29.266Z,15.37
2019-03-30T13:26:03.915Z,15.00
2019-03-30T13:28:28.823Z,15.57
2019-03-30T13:30:58.074Z,13.80
2019-03-30T13:33:27.067Z,13.57
2019-03-30T13:35:56.055Z,13.80
2019-03-30T13:38:25.927Z,14.00
2019-03-30T13:40:55.116Z,12.00
2019-03-30T13:43:24.221Z,11.13
2019-03-30T13:45:53.172Z,9.47
2019-03-30T13:48:22.051Z,9.77
2019-03-30T13:50:51.088Z,8.35
2019-03-30T13:53:20.144Z,7.60
2019-03-30T13:55:49.030Z,10.00
2019-03-30T13:58:18.026Z,9.85
2019-03-30T14:00:47.015Z,10.37
2019-03-30T14:03:16.200Z,9.33
2019-03-30T14:05:45.032Z,10.23
2019-03-30T14:08:13.833Z,9.33
2019-03-30T14:10:42.737Z,10.17
2019-03-30T14:13:11.805Z,11.48
2019-03-30T14:15:40.879Z,12.65
2019-03-30T14:18:09.687Z,11.40
2019-03-30T14:20:38.597Z,13.17
2019-03-30T14:23:07.462Z,13.18
2019-03-30T14:25:36.527Z,14.60
2019-03-30T14:28:05.554Z,14.43
2019-03-30T14:30:34.487Z,13.20
2019-03-30T14:33:03.297Z,13.10
2019-03-30T14:35:32.292Z,13.67
2019-03-30T14:38:01.376Z,12.77
2019-03-30T14:40:30.439Z,13.37
2019-03-30T14:42:59.269Z,12.80
2019-03-30T14:45:28.131Z,13.07
2019-03-30T14:47:58.081Z,11.43
2019-03-30T14:50:27.182Z,12.93
2019-03-30T14:52:56.069Z,11.13
2019-03-30T14:55:24.865Z,9.77
2019-03-30T14:57:53.978Z,9.67
2019-03-30T15:00:23.078Z,8.93
2019-03-30T15:02:52.479Z,8.50
2019-03-30T15:05:21.349Z,7.30
2019-03-30T15:07:50.342Z,9.30
2019-03-30T15:10:19.300Z,8.57
2019-03-30T15:12:48.404Z,8.20
2019-03-30T15:15:17.323Z,9.40
2019-03-30T15:17:46.178Z,10.93
2019-03-30T15:20:14.991Z,11.70
2019-03-30T15:22:44.198Z,11.60
2019-03-30T15:25:13.522Z,9.20
2019-03-30T15:27:42.708Z,10.47
2019-03-30T15:30:12.480Z,11.57
2019-03-30T15:32:41.399Z,11.60
2019-03-30T15:35:10.400Z,11.97
2019-03-30T15:37:39.337Z,12.53
2019-03-30T15:40:08.219Z,10.33
2019-03-30T15:42:40.063Z,8.53
2019-03-30T15:45:11.425Z,9.40
2019-03-30T15:47:40.422Z,9.07
2019-03-30T15:50:09.441Z,8.43
2019-03-30T15:52:38.291Z,7.40
2019-03-30T15:55:08.114Z,6.17
2019-03-30T15:57:37.084Z,5.70
2019-03-30T16:00:11.536Z,4.90
2019-03-30T16:02:40.653Z,4.77
2019-03-30T16:05:09.516Z,4.43
2019-03-30T16:07:38.385Z,5.30
2019-03-30T16:10:07.513Z,5.07
2019-03-30T16:12:36.621Z,4.67
2019-03-30T16:15:06.002Z,4.60
2019-03-30T16:17:35.303Z,4.30
2019-03-30T16:20:08.288Z,4.33
2019-03-30T16:22:37.069Z,4.70
2019-03-30T16:25:07.133Z,3.80
2019-03-30T16:27:39.014Z,2.93
2019-03-30T16:30:07.816Z,2.80
2019-03-30T16:32:36.749Z,3.10
2019-03-30T16:35:06.377Z,3.10
2019-03-30T16:37:35.202Z,2.70
2019-03-30T16:40:04.914Z,3.67
2019-03-30T16:42:34.070Z,3.30
2019-03-30T16:45:03.078Z,3.83
2019-03-30T16:47:34.755Z,3.83
2019-03-30T16:50:04.638Z,4.03
2019-03-30T16:52:33.764Z,4.30
2019-03-30T16:55:02.913Z,3.80
2019-03-30T16:57:43.118Z,3.40
2019-03-30T17:00:07.256Z,3.10
2019-03-30T17:02:36.626Z,2.30
2019-03-30T17:05:07.489Z,2.57
2019-03-30T17:07:36.470Z,2.53
2019-03-30T17:10:08.818Z,3.00
2019-03-30T17:12:37.833Z,2.80
2019-03-30T17:15:06.931Z,3.03
2019-03-30T17:17:36.024Z,3.40
2019-03-30T17:20:06.859Z,3.00
2019-03-30T17:22:37.115Z,3.43
2019-03-30T17:25:06.812Z,3.17
2019-03-30T17:27:36.221Z,2.97
2019-03-30T17:30:09.038Z,3.83
2019-03-30T17:32:37.966Z,3.30
2019-03-30T17:35:06.936Z,3.40
2019-03-30T17:37:36.469Z,3.20
2019-03-30T17:40:08.513Z,3.60
2019-03-30T17:42:38.858Z,3.40
2019-03-30T17:45:09.201Z,3.57
2019-03-30T17:47:38.744Z,4.10
2019-03-30T17:50:07.923Z,4.70
2019-03-30T17:52:36.917Z,4.93
2019-03-30T17:55:05.963Z,6.07
2019-03-30T17:57:35.031Z,5.93
2019-03-30T18:00:09.715Z,6.30
2019-03-30T18:02:44.971Z,5.93
2019-03-30T18:05:14.096Z,5.97
2019-03-30T18:07:42.983Z,5.70
2019-03-30T18:10:12.064Z,4.83
2019-03-30T18:12:40.986Z,4.80
2019-03-30T18:15:10.125Z,5.23
2019-03-30T18:17:39.183Z,4.87
2019-03-30T18:20:08.017Z,4.73
2019-03-30T18:22:36.828Z,4.93
2019-03-30T18:25:06.404Z,4.37
2019-03-30T18:27:35.402Z,4.43
2019-03-30T18:30:06.585Z,5.27
2019-03-30T18:32:36.277Z,5.47
2019-03-30T18:35:06.349Z,6.07
2019-03-30T18:37:36.959Z,6.12
2019-03-30T18:40:07.293Z,5.97
2019-03-30T18:42:39.158Z,6.03
2019-03-30T18:45:08.189Z,7.13
2019-03-30T18:47:37.285Z,6.67
2019-03-30T18:50:07.446Z,6.67
2019-03-30T18:52:36.515Z,6.80
2019-03-30T18:55:06.711Z,7.43
2019-03-30T18:57:35.661Z,7.17
2019-03-30T19:00:07.064Z,8.60
2019-03-30T19:02:36.208Z,7.50
2019-03-30T19:05:05.805Z,7.27
2019-03-30T19:07:34.743Z,7.80
2019-03-30T19:10:04.192Z,9.70
2019-03-30T19:12:33.248Z,9.70
2019-03-30T19:15:02.345Z,11.73
2019-03-30T19:17:31.439Z,12.73
2019-03-30T19:20:00.440Z,7.60
2019-03-30T19:22:29.392Z,6.73
2019-03-30T19:24:58.411Z,7.13
2019-03-30T19:27:27.310Z,6.50
2019-03-30T19:29:56.129Z,5.63
2019-03-30T19:32:25.267Z,6.10
2019-03-30T19:34:54.202Z,5.67
2019-03-30T19:37:23.164Z,6.07
2019-03-30T19:39:52.212Z,6.30
2019-03-30T19:42:21.361Z,5.90
2019-03-30T19:44:50.395Z,7.00
2019-03-30T19:47:19.627Z,7.03
2019-03-30T19:49:48.669Z,6.40
2019-03-30T19:52:17.799Z,7.40
2019-03-30T19:54:47.107Z,7.73
2019-03-30T19:57:16.206Z,6.60
2019-03-30T19:59:45.176Z,6.00
2019-03-30T20:02:14.642Z,6.77
2019-03-30T20:04:43.746Z,5.67
2019-03-30T20:07:12.994Z,5.97
2019-03-30T20:09:42.885Z,5.50
2019-03-30T20:12:12.072Z,5.90
2019-03-30T20:14:41.179Z,5.97
2019-03-30T20:17:11.780Z,5.07
2019-03-30T20:19:40.784Z,5.67
2019-03-30T20:22:09.899Z,6.43
2019-03-30T20:24:38.815Z,6.03
2019-03-30T20:27:07.976Z,6.30
2019-03-30T20:29:37.037Z,6.77
2019-03-30T20:32:06.346Z,6.33
2019-03-30T20:34:35.442Z,6.67
2019-03-30T20:37:05.252Z,5.93
2019-03-30T20:39:35.357Z,6.77
2019-03-30T20:42:04.368Z,6.43
2019-03-30T20:44:33.297Z,6.33
2019-03-30T20:47:02.628Z,6.53
2019-03-30T20:49:31.662Z,6.40
2019-03-30T20:52:00.600Z,6.43
2019-03-30T20:54:32.771Z,7.77
2019-03-30T20:57:01.771Z,7.23
2019-03-30T20:59:39.783Z,6.50
2019-03-30T21:02:01.514Z,10.20
2019-03-30T21:04:30.476Z,6.93
2019-03-30T21:06:59.690Z,7.93
2019-03-30T21:09:28.990Z,7.17
2019-03-30T21:11:57.964Z,6.83
2019-03-30T21:14:27.397Z,6.03
2019-03-30T21:16:56.516Z,6.07
2019-03-30T21:19:25.729Z,6.93
2019-03-30T21:21:54.661Z,6.27
2019-03-30T21:24:23.752Z,6.07
2019-03-30T21:26:53.860Z,6.27
2019-03-30T21:29:25.656Z,6.90
2019-03-30T21:31:54.880Z,6.60
2019-03-30T21:34:24.062Z,6.50
2019-03-30T21:36:53.169Z,6.73
2019-03-30T21:39:22.163Z,7.90
2019-03-30T21:41:51.271Z,6.37
2019-03-30T21:44:22.371Z,5.93
2019-03-30T21:46:51.153Z,5.20
2019-03-30T21:49:20.288Z,5.57
2019-03-30T21:51:49.487Z,5.83
2019-03-30T21:54:18.405Z,5.10
2019-03-30T21:56:47.394Z,5.23
2019-03-30T21:59:16.291Z,5.83
2019-03-30T22:01:45.172Z,5.73
2019-03-30T22:04:14.339Z,6.53
2019-03-30T22:06:43.366Z,7.10
2019-03-30T22:09:12.388Z,6.93
2019-03-30T22:11:41.328Z,5.80
2019-03-30T22:14:10.250Z,5.63
2019-03-30T22:16:39.278Z,6.03
2019-03-30T22:19:08.230Z,6.17
2019-03-30T22:21:40.173Z,6.27
2019-03-30T22:24:09.311Z,5.70
2019-03-30T22:26:38.992Z,5.70
2019-03-30T22:29:07.890Z,5.80
2019-03-30T22:31:36.813Z,5.87
2019-03-30T22:34:05.865Z,5.57
2019-03-30T22:36:34.775Z,6.53
2019-03-30T22:39:05.456Z,5.83
2019-03-30T22:41:34.615Z,5.77
2019-03-30T22:44:03.631Z,6.00
2019-03-30T22:46:32.485Z,6.00
2019-03-30T22:49:01.421Z,6.57
2019-03-30T22:51:30.492Z,5.60
2019-03-30T22:54:00.652Z,5.67
2019-03-30T22:56:29.479Z,7.15
2019-03-30T22:58:58.411Z,6.30
2019-03-30T23:01:29.767Z,6.90
2019-03-30T23:03:58.656Z,6.13
2019-03-30T23:06:27.526Z,6.73
2019-03-30T23:08:57.661Z,6.90
2019-03-30T23:11:26.704Z,6.13
2019-03-30T23:13:55.711Z,5.93
2019-03-30T23:16:24.927Z,6.03
2019-03-30T23:18:53.746Z,6.40
2019-03-30T23:21:22.617Z,6.33
2019-03-30T23:23:51.541Z,6.07
2019-03-30T23:26:20.448Z,6.23
2019-03-30T23:28:49.323Z,6.20
2019-03-30T23:31:18.201Z,6.33
2019-03-30T23:33:47.081Z,6.63
2019-03-30T23:36:15.894Z,6.07
2019-03-30T23:38:44.887Z,6.87
2019-03-30T23:41:13.820Z,6.17
2019-03-30T23:43:42.813Z,6.50
2019-03-30T23:46:11.878Z,7.13
2019-03-30T23:48:41.019Z,6.37
2019-03-30T23:51:10.074Z,6.00
2019-03-30T23:53:38.960Z,6.77
2019-03-30T23:56:11.113Z,5.40
2019-03-30T23:58:40.325Z,6.13
